Time;durP1;ratioP1;P1;durP2;ratioP2;P2;SDS_P1;SDS_P2;PMS_P1;PMS_P2;Temp;Humidity;BMP_temperature;BMP_pressure;BME280_temperature;BME280_humidity;BME280_pressure;Samples;Min_cycle;Max_cycle;Signal;HPM_P1;HPM_P2
2021/12/03 00:00:25;;;;;;;10.70;1.98;;;2.20;99.90;;;;;;5013831;28;20061;-76
2021/12/03 00:02:51;;;;;;;7.05;1.70;;;2.20;99.90;;;;;;4994088;28;20065;-76
2021/12/03 00:05:17;;;;;;;8.33;1.50;;;2.30;99.90;;;;;;4994575;28;20042;-76
2021/12/03 00:07:43;;;;;;;8.43;1.52;;;2.30;99.90;;;;;;4994798;28;20082;-76
2021/12/03 00:10:11;;;;;;;7.00;1.60;;;2.30;99.90;;;;;;4995019;28;20046;-77
2021/12/03 00:12:38;;;;;;;5.63;1.42;;;2.30;99.90;;;;;;4993909;28;20050;-76
2021/12/03 00:15:05;;;;;;;6.38;1.30;;;2.30;99.90;;;;;;4994824;28;20129;-76
2021/12/03 00:17:31;;;;;;;8.80;1.30;;;2.20;99.90;;;;;;4977143;28;20468;-76
2021/12/03 00:19:57;;;;;;;8.40;1.58;;;2.30;99.90;;;;;;4994476;28;20550;-76
2021/12/03 00:22:23;;;;;;;9.97;1.33;;;2.30;99.90;;;;;;4994268;28;20153;-76
2021/12/03 00:24:49;;;;;;;5.90;1.17;;;2.30;99.90;;;;;;4994831;28;20450;-76
2021/12/03 00:27:16;;;;;;;8.43;2.23;;;2.40;99.90;;;;;;4994374;28;20046;-75
2021/12/03 00:29:41;;;;;;;6.15;1.20;;;2.40;99.90;;;;;;4993979;28;20469;-76
2021/12/03 00:32:07;;;;;;;7.57;1.13;;;2.40;99.90;;;;;;4994957;28;20173;-76
2021/12/03 00:34:33;;;;;;;6.07;1.20;;;2.40;99.90;;;;;;4994610;28;20054;-76
2021/12/03 00:36:59;;;;;;;4.70;1.10;;;2.40;99.90;;;;;;4994811;28;20053;-76
2021/12/03 00:39:28;;;;;;;9.60;1.52;;;2.40;99.90;;;;;;4993373;28;20046;-76
2021/12/03 00:41:59;;;;;;;5.53;1.10;;;2.50;99.90;;;;;;4993771;28;20455;-77
2021/12/03 00:44:25;;;;;;;3.67;1.17;;;2.40;99.90;;;;;;4994479;28;20050;-76
2021/12/03 00:46:52;;;;;;;5.93;1.50;;;2.50;99.90;;;;;;4994618;28;20046;-76
2021/12/03 00:49:18;;;;;;;10.05;1.45;;;2.50;99.90;;;;;;4993092;28;20077;-76
2021/12/03 00:51:44;;;;;;;5.65;1.10;;;2.60;99.90;;;;;;4994541;28;20093;-76
2021/12/03 00:54:09;;;;;;;6.93;1.40;;;2.50;99.90;;;;;;4993514;28;20115;-76
2021/12/03 00:56:36;;;;;;;5.50;1.37;;;2.50;99.90;;;;;;4994070;28;20915;-76
2021/12/03 00:59:02;;;;;;;8.70;1.27;;;2.50;99.90;;;;;;4993302;28;20108;-76
2021/12/03 01:01:27;;;;;;;7.93;1.45;;;2.50;99.90;;;;;;5004150;28;20058;-76
2021/12/03 01:03:53;;;;;;;4.97;1.33;;;2.60;99.90;;;;;;4996489;28;20050;-76
2021/12/03 01:06:19;;;;;;;5.43;1.20;;;2.50;99.90;;;;;;5013543;28;20129;-76
2021/12/03 01:08:44;;;;;;;4.93;1.47;;;2.60;99.90;;;;;;5014415;28;20529;-76
2021/12/03 01:11:11;;;;;;;7.20;1.50;;;2.60;99.90;;;;;;5013722;28;20049;-76
2021/12/03 01:13:39;;;;;;;7.35;1.33;;;2.60;99.90;;;;;;5013423;28;20068;-75
2021/12/03 01:16:07;;;;;;;4.43;1.20;;;2.60;99.90;;;;;;5013598;28;20054;-75
2021/12/03 01:18:33;;;;;;;8.55;2.13;;;2.60;99.90;;;;;;5013288;28;20132;-75
2021/12/03 01:21:00;;;;;;;6.47;1.40;;;2.60;99.90;;;;;;5013770;28;20072;-76
2021/12/03 01:23:26;;;;;;;4.63;1.10;;;2.60;99.90;;;;;;5013038;28;20056;-75
2021/12/03 01:25:52;;;;;;;6.37;1.40;;;;;;;;;;5013579;28;20049;-76
2021/12/03 01:28:18;;;;;;;7.55;1.50;;;;;;;;;;5013413;28;20042;-75
2021/12/03 01:30:44;;;;;;;7.15;1.40;;;;;;;;;;5013126;28;20073;-76
2021/12/03 01:33:10;;;;;;;9.35;2.03;;;2.80;99.90;;;;;;5013378;28;20046;-76
2021/12/03 01:35:38;;;;;;;8.18;1.20;;;2.70;99.90;;;;;;5012895;28;20376;-76
2021/12/03 01:38:05;;;;;;;7.22;1.40;;;2.70;99.90;;;;;;5013162;28;20046;-76
2021/12/03 01:40:33;;;;;;;6.00;1.17;;;2.70;99.90;;;;;;5012972;28;20049;-76
2021/12/03 01:43:01;;;;;;;5.30;1.10;;;2.70;99.90;;;;;;4979883;28;20053;-76
2021/12/03 01:45:31;;;;;;;8.75;1.40;;;2.70;99.90;;;;;;5012939;28;20406;-76
2021/12/03 01:47:58;;;;;;;13.23;2.13;;;2.70;99.90;;;;;;5013256;28;20405;-76
2021/12/03 01:50:31;;;;;;;6.05;1.10;;;2.70;99.90;;;;;;5012841;28;20045;-76
2021/12/03 01:52:57;;;;;;;4.45;1.38;;;2.70;99.90;;;;;;4979954;28;20045;-75
2021/12/03 01:55:23;;;;;;;5.22;1.27;;;2.70;99.90;;;;;;5012818;28;20478;-76
2021/12/03 01:57:50;;;;;;;5.43;1.40;;;2.70;99.90;;;;;;5013037;28;20049;-75
2021/12/03 02:00:31;;;;;;;5.97;1.23;;;2.70;99.90;;;;;;4995265;28;20042;-75
2021/12/03 02:02:58;;;;;;;8.48;1.20;;;2.70;99.90;;;;;;4995558;28;20141;-76
2021/12/03 02:05:24;;;;;;;13.38;1.88;;;2.70;99.90;;;;;;5012782;28;20046;-76
2021/12/03 02:07:50;;;;;;;8.93;1.83;;;2.70;99.90;;;;;;5013087;28;20046;-76
2021/12/03 02:10:18;;;;;;;9.43;1.45;;;2.70;99.90;;;;;;5012929;28;20372;-76
2021/12/03 02:12:45;;;;;;;7.50;1.70;;;2.70;99.90;;;;;;5012616;28;20052;-76
2021/12/03 02:15:11;;;;;;;7.20;1.40;;;2.70;99.90;;;;;;4995374;28;20057;-76
2021/12/03 02:17:37;;;;;;;8.40;1.73;;;2.70;99.90;;;;;;4995018;28;20061;-76
2021/12/03 02:20:06;;;;;;;7.77;1.50;;;2.60;99.90;;;;;;5012838;28;20045;-76
2021/12/03 02:22:31;;;;;;;3.95;1.33;;;2.70;99.90;;;;;;4979100;28;20125;-76
2021/12/03 02:24:57;;;;;;;8.13;1.77;;;2.70;99.90;;;;;;5013114;28;20049;-76
2021/12/03 02:27:23;;;;;;;8.00;1.80;;;2.70;99.90;;;;;;5012845;28;20046;-76
2021/12/03 02:29:48;;;;;;;7.53;1.50;;;2.70;99.90;;;;;;5012507;28;20053;-75
2021/12/03 02:32:14;;;;;;;6.03;1.70;;;2.70;99.90;;;;;;5012947;28;20437;-76
2021/12/03 02:34:40;;;;;;;9.67;2.17;;;2.70;99.90;;;;;;5012424;28;20045;-75
2021/12/03 02:37:06;;;;;;;5.47;1.77;;;2.70;99.90;;;;;;4998011;28;20116;-76
2021/12/03 02:39:32;;;;;;;8.43;1.73;;;2.70;99.90;;;;;;5015955;28;20100;-76
2021/12/03 02:41:58;;;;;;;8.07;2.00;;;2.70;99.90;;;;;;5016625;28;20042;-76
2021/12/03 02:44:24;;;;;;;4.00;1.43;;;2.60;99.90;;;;;;5016581;28;20041;-76
2021/12/03 02:46:49;;;;;;;6.65;2.00;;;2.60;99.90;;;;;;5016112;28;20374;-76
2021/12/03 02:49:15;;;;;;;8.53;2.17;;;2.60;99.90;;;;;;4998526;28;20042;-76
2021/12/03 02:51:44;;;;;;;9.40;2.10;;;2.60;99.90;;;;;;4998470;28;20046;-76
2021/12/03 02:54:10;;;;;;;6.35;2.10;;;2.60;99.90;;;;;;5015859;28;20741;-76
2021/12/03 02:56:37;;;;;;;8.33;2.23;;;2.60;99.90;;;;;;5015681;28;20057;-76
2021/12/03 02:59:04;;;;;;;9.98;2.55;;;2.60;99.90;;;;;;5016140;28;20058;-76
2021/12/03 03:01:31;;;;;;;8.35;1.88;;;2.60;99.90;;;;;;5015621;28;20100;-76
2021/12/03 03:03:57;;;;;;;11.15;2.40;;;2.60;99.90;;;;;;5016173;28;20522;-76
2021/12/03 03:06:22;;;;;;;9.20;2.10;;;2.70;99.90;;;;;;5016127;28;20129;-76
2021/12/03 03:08:48;;;;;;;6.53;1.80;;;2.70;99.90;;;;;;5015777;28;20176;-76
2021/12/03 03:11:16;;;;;;;8.50;2.10;;;2.70;99.90;;;;;;5015937;28;20046;-76
2021/12/03 03:13:42;;;;;;;9.20;1.90;;;2.70;99.90;;;;;;5015890;28;20050;-76
2021/12/03 03:16:09;;;;;;;9.38;2.08;;;2.70;99.90;;;;;;4998617;28;20046;-76
2021/12/03 03:18:35;;;;;;;9.43;2.28;;;2.80;99.90;;;;;;4998257;28;20418;-76
2021/12/03 03:21:03;;;;;;;7.85;2.55;;;2.80;99.90;;;;;;5015773;28;20371;-76
2021/12/03 03:23:30;;;;;;;8.45;2.13;;;2.80;99.90;;;;;;5015723;28;20056;-76
2021/12/03 03:25:56;;;;;;;11.95;2.55;;;2.80;99.90;;;;;;5015427;28;20053;-76
2021/12/03 03:28:23;;;;;;;12.32;3.03;;;2.70;99.90;;;;;;5015707;28;20045;-76
2021/12/03 03:30:50;;;;;;;7.43;2.58;;;2.80;99.90;;;;;;5015359;28;20046;-76
2021/12/03 03:33:17;;;;;;;8.50;3.38;;;2.70;99.90;;;;;;5015655;28;20075;-76
2021/12/03 03:35:43;;;;;;;9.68;5.57;;;2.70;99.90;;;;;;5015199;28;20108;-76
2021/12/03 03:38:09;;;;;;;11.52;5.00;;;2.70;99.90;;;;;;5014864;28;20096;-76
2021/12/03 03:40:35;;;;;;;11.10;5.00;;;2.70;99.90;;;;;;5014897;28;20054;-76
2021/12/03 03:43:03;;;;;;;9.60;4.90;;;2.70;99.90;;;;;;5015383;28;20281;-76
2021/12/03 03:45:30;;;;;;;14.77;5.80;;;2.70;99.90;;;;;;5015404;28;20046;-76
2021/12/03 03:47:56;;;;;;;14.07;6.57;;;2.70;99.90;;;;;;5014887;28;20054;-76
2021/12/03 03:50:23;;;;;;;13.03;6.30;;;2.70;99.90;;;;;;5015287;28;20057;-76
2021/12/03 03:52:53;;;;;;;11.15;6.78;;;2.70;99.90;;;;;;4997399;28;20054;-76
2021/12/03 03:55:20;;;;;;;15.50;8.73;;;2.70;99.90;;;;;;5015135;28;20046;-76
2021/12/03 03:57:48;;;;;;;12.57;8.68;;;2.70;99.90;;;;;;5014809;28;20050;-76
2021/12/03 04:00:18;;;;;;;15.57;9.20;;;2.70;99.90;;;;;;5014785;28;20046;-76
2021/12/03 04:02:45;;;;;;;16.13;10.95;;;2.70;99.90;;;;;;4997283;28;20050;-76
2021/12/03 04:05:11;;;;;;;16.25;10.93;;;2.70;99.90;;;;;;5015036;28;20187;-76
2021/12/03 04:07:38;;;;;;;17.55;10.30;;;2.70;99.90;;;;;;5013559;28;20046;-76
2021/12/03 04:10:06;;;;;;;20.17;11.95;;;2.70;99.90;;;;;;5014786;28;20057;-76
2021/12/03 04:12:33;;;;;;;17.77;11.65;;;2.70;99.90;;;;;;5014825;28;20042;-76
2021/12/03 04:14:58;;;;;;;20.65;12.52;;;2.80;99.90;;;;;;5014492;28;20085;-76
2021/12/03 04:17:24;;;;;;;17.73;12.20;;;2.70;99.90;;;;;;5014498;28;20085;-76
2021/12/03 04:19:50;;;;;;;22.97;13.77;;;2.70;99.90;;;;;;5014386;28;20111;-76
2021/12/03 04:22:18;;;;;;;19.93;13.27;;;2.70;99.90;;;;;;5014642;28;20042;-76
2021/12/03 04:24:44;;;;;;;17.67;12.85;;;2.70;99.90;;;;;;5014282;28;20073;-76
2021/12/03 04:27:10;;;;;;;23.57;14.00;;;2.80;99.90;;;;;;5014622;28;20474;-76
2021/12/03 04:29:36;;;;;;;20.33;13.10;;;2.70;99.90;;;;;;5014477;28;20053;-76
2021/12/03 04:32:02;;;;;;;21.07;14.60;;;2.70;99.90;;;;;;5014175;28;20049;-76
2021/12/03 04:34:28;;;;;;;24.42;14.90;;;2.70;99.90;;;;;;4981205;28;20085;-76
2021/12/03 04:36:53;;;;;;;19.10;14.07;;;2.70;99.90;;;;;;5014078;28;20085;-76
2021/12/03 04:39:19;;;;;;;20.57;12.70;;;2.70;99.90;;;;;;5014227;28;20089;-76
2021/12/03 04:41:45;;;;;;;18.70;13.60;;;2.60;99.90;;;;;;5014059;28;20041;-76
2021/12/03 04:44:11;;;;;;;20.70;13.60;;;2.60;99.90;;;;;;4996945;28;20509;-76
2021/12/03 04:46:36;;;;;;;23.63;14.10;;;2.60;99.90;;;;;;5014195;28;20133;-76
2021/12/03 04:49:03;;;;;;;18.63;15.50;;;2.70;99.90;;;;;;5013856;28;20100;-76
2021/12/03 04:51:29;;;;;;;19.50;14.50;;;2.70;99.90;;;;;;5014094;28;20132;-76
2021/12/03 04:53:55;;;;;;;19.03;14.23;;;2.60;99.90;;;;;;5013824;28;20137;-76
2021/12/03 04:56:21;;;;;;;19.37;14.40;;;2.60;99.90;;;;;;5014063;28;20089;-76
2021/12/03 04:58:46;;;;;;;18.43;14.00;;;2.70;99.90;;;;;;5013210;28;20049;-76
2021/12/03 05:01:12;;;;;;;22.90;15.20;;;2.70;99.90;;;;;;4996043;28;20107;-76
2021/12/03 05:03:38;;;;;;;18.20;13.80;;;2.70;99.90;;;;;;5013888;28;20046;-76
2021/12/03 05:06:08;;;;;;;19.13;13.23;;;2.70;99.90;;;;;;5013612;28;20041;-76
2021/12/03 05:08:34;;;;;;;23.50;16.05;;;2.70;99.90;;;;;;5013835;28;20045;-76
2021/12/03 05:11:01;;;;;;;19.17;13.70;;;2.70;99.90;;;;;;5013488;28;20045;-76
2021/12/03 05:13:30;;;;;;;22.23;14.00;;;2.70;99.90;;;;;;5013740;28;20058;-76
2021/12/03 05:15:56;;;;;;;17.48;13.07;;;2.70;99.90;;;;;;4996101;28;20363;-76
2021/12/03 05:18:24;;;;;;;17.95;13.35;;;2.60;99.90;;;;;;5013629;28;20076;-76
2021/12/03 05:20:54;;;;;;;18.67;14.13;;;2.60;99.90;;;;;;5013250;28;20049;-76
2021/12/03 05:23:22;;;;;;;18.27;13.38;;;2.60;99.90;;;;;;5013723;28;20120;-76
2021/12/03 05:25:48;;;;;;;20.77;12.55;;;2.60;99.90;;;;;;5013344;28;20469;-76
2021/12/03 05:28:16;;;;;;;19.77;12.35;;;2.60;99.90;;;;;;5013718;28;20053;-76
2021/12/03 05:30:43;;;;;;;18.42;12.98;;;2.60;99.90;;;;;;5013311;28;20042;-76
2021/12/03 05:33:09;;;;;;;18.90;13.13;;;2.60;99.90;;;;;;5012814;28;20054;-76
2021/12/03 05:35:36;;;;;;;21.65;12.77;;;2.60;99.90;;;;;;5013005;28;20100;-76
2021/12/03 05:38:03;;;;;;;17.75;13.30;;;2.60;99.90;;;;;;5012836;28;20046;-76
2021/12/03 05:40:29;;;;;;;17.02;11.45;;;2.60;99.90;;;;;;5013111;28;20441;-76
2021/12/03 05:42:55;;;;;;;15.27;12.57;;;2.60;99.90;;;;;;5012918;28;20429;-76
2021/12/03 05:45:25;;;;;;;21.30;13.80;;;2.60;99.90;;;;;;5013214;28;20041;-76
2021/12/03 05:47:51;;;;;;;20.15;14.25;;;2.60;99.90;;;;;;5012879;28;20056;-76
2021/12/03 05:50:19;;;;;;;19.05;13.10;;;2.60;99.90;;;;;;5013253;28;20502;-76
2021/12/03 05:52:46;;;;;;;18.90;12.80;;;2.50;99.90;;;;;;5012834;28;20398;-76
2021/12/03 05:55:13;;;;;;;17.40;13.73;;;2.60;99.90;;;;;;5012707;28;20410;-76
2021/12/03 05:57:39;;;;;;;21.55;12.93;;;2.60;99.90;;;;;;5012621;28;20085;-76
2021/12/03 06:00:09;;;;;;;17.85;12.63;;;2.60;99.90;;;;;;4978370;28;20052;-76
2021/12/03 06:02:35;;;;;;;18.95;13.75;;;2.60;99.90;;;;;;4994384;28;20521;-76
2021/12/03 06:05:00;;;;;;;23.40;14.30;;;2.70;99.90;;;;;;5012260;28;20179;-76
2021/12/03 06:07:26;;;;;;;20.07;15.53;;;2.60;99.90;;;;;;5012538;28;20056;-76
2021/12/03 06:09:52;;;;;;;22.57;14.70;;;2.70;99.90;;;;;;4995207;28;20057;-76
2021/12/03 06:12:17;;;;;;;27.23;17.27;;;2.70;99.90;;;;;;5016239;28;20041;-77
2021/12/03 06:14:43;;;;;;;26.97;16.20;;;2.80;99.90;;;;;;4999584;28;20046;-76
2021/12/03 06:17:12;;;;;;;23.27;14.33;;;2.80;99.90;;;;;;4999393;28;20053;-76
2021/12/03 06:19:39;;;;;;;20.58;15.57;;;2.90;99.90;;;;;;5016860;28;20081;-76
2021/12/03 06:22:05;;;;;;;25.73;17.20;;;2.90;99.90;;;;;;5016604;28;20050;-76
2021/12/03 06:24:31;;;;;;;27.63;16.73;;;3.00;99.90;;;;;;5016906;28;20056;-76
2021/12/03 06:26:57;;;;;;;26.03;17.50;;;3.00;99.90;;;;;;5016616;28;20088;-76
2021/12/03 06:29:22;;;;;;;25.77;16.47;;;3.00;99.90;;;;;;5016946;28;20053;-77
2021/12/03 06:31:48;;;;;;;25.17;14.83;;;3.10;99.90;;;;;;5016448;28;20100;-77
2021/12/03 06:34:14;;;;;;;21.43;14.10;;;3.10;99.90;;;;;;4999081;28;20085;-78
2021/12/03 06:36:39;;;;;;;25.33;15.27;;;3.30;99.90;;;;;;5016368;28;20050;-78
2021/12/03 06:39:05;;;;;;;23.33;13.43;;;3.30;99.90;;;;;;5016327;28;20046;-78
2021/12/03 06:41:31;;;;;;;20.67;15.03;;;3.30;99.90;;;;;;5016493;28;20050;-77
2021/12/03 06:43:57;;;;;;;20.17;14.07;;;3.30;99.90;;;;;;5016223;28;20049;-77
2021/12/03 06:46:23;;;;;;;20.88;14.27;;;3.30;99.90;;;;;;5016651;28;20049;-82
2021/12/03 06:48:49;;;;;;;22.17;13.02;;;3.30;99.90;;;;;;4999163;28;20493;-81
2021/12/03 06:51:15;;;;;;;26.00;13.03;;;3.30;99.90;;;;;;5016066;28;20053;-82
2021/12/03 06:53:55;;;;;;;18.50;11.95;;;3.30;99.90;;;;;;5016301;28;20045;-81
2021/12/03 06:56:22;;;;;;;19.38;11.90;;;3.40;99.90;;;;;;5016668;28;20125;-82
2021/12/03 06:58:48;;;;;;;17.05;11.98;;;3.30;99.90;;;;;;4998737;28;20050;-81
2021/12/03 07:01:15;;;;;;;20.23;11.57;;;3.40;99.90;;;;;;5015781;28;20093;-81
2021/12/03 07:03:41;;;;;;;24.38;11.77;;;3.40;99.90;;;;;;5016175;28;20152;-81
2021/12/03 07:06:07;;;;;;;16.17;9.30;;;3.30;99.90;;;;;;5015906;28;20062;-80
2021/12/03 07:08:33;;;;;;;16.10;8.40;;;3.40;99.90;;;;;;4998968;28;20498;-78
2021/12/03 07:10:58;;;;;;;19.43;8.33;;;3.40;99.90;;;;;;5015846;28;20038;-75
2021/12/03 07:13:26;;;;;;;17.57;7.63;;;3.40;99.90;;;;;;5016603;28;20050;-78
2021/12/03 07:15:51;;;;;;;14.98;6.32;;;3.40;99.90;;;;;;5015951;28;20050;-78
2021/12/03 07:18:17;;;;;;;16.67;5.80;;;3.40;99.90;;;;;;5015731;28;20076;-77
2021/12/03 07:20:43;;;;;;;16.80;5.93;;;3.40;99.90;;;;;;4998584;28;20049;-77
2021/12/03 07:23:08;;;;;;;14.77;4.93;;;3.50;99.90;;;;;;4997819;28;20058;-77
2021/12/03 07:25:34;;;;;;;15.37;4.47;;;3.50;99.90;;;;;;5015747;28;20089;-77
2021/12/03 07:28:00;;;;;;;17.87;4.90;;;3.50;99.90;;;;;;5015443;28;20046;-77
2021/12/03 07:30:30;;;;;;;11.90;4.80;;;;;;;;;;5015810;28;20060;-77
2021/12/03 07:32:57;;;;;;;12.45;5.30;;;3.60;99.90;;;;;;5015760;28;20054;-77
2021/12/03 07:35:23;;;;;;;12.05;4.40;;;3.60;99.90;;;;;;5015591;28;20125;-77
2021/12/03 07:37:49;;;;;;;13.17;4.37;;;3.60;99.90;;;;;;5015619;28;20137;-77
2021/12/03 07:40:16;;;;;;;10.70;4.90;;;3.60;99.90;;;;;;5015196;28;20096;-78
2021/12/03 07:42:42;;;;;;;14.32;4.53;;;3.60;99.90;;;;;;5015464;28;20053;-78
2021/12/03 07:45:12;;;;;;;12.27;4.50;;;3.70;99.90;;;;;;5015144;28;20088;-77
2021/12/03 07:47:38;;;;;;;11.20;4.50;;;3.70;99.90;;;;;;5015697;28;20096;-78
2021/12/03 07:50:06;;;;;;;12.03;5.07;;;3.60;99.90;;;;;;5015003;28;20046;-77
2021/12/03 07:52:33;;;;;;;12.43;5.28;;;3.60;99.90;;;;;;5015290;28;20409;-77
2021/12/03 07:54:59;;;;;;;14.95;4.78;;;3.60;99.90;;;;;;5015101;28;20045;-77
2021/12/03 07:57:25;;;;;;;14.32;5.40;;;3.60;99.90;;;;;;5015219;28;20096;-77
2021/12/03 07:59:51;;;;;;;15.03;5.27;;;3.60;99.90;;;;;;5015072;28;20100;-78
2021/12/03 08:02:17;;;;;;;15.05;5.82;;;3.60;99.90;;;;;;5014967;28;20065;-78
2021/12/03 08:04:43;;;;;;;12.67;5.40;;;3.60;99.90;;;;;;5015017;28;20490;-78
2021/12/03 08:07:09;;;;;;;10.57;5.33;;;3.60;99.90;;;;;;4997410;28;20208;-77
2021/12/03 08:09:35;;;;;;;13.47;5.20;;;3.60;99.90;;;;;;5015112;28;20057;-77
2021/12/03 08:12:01;;;;;;;10.52;4.95;;;;;;;;;;5014851;28;20046;-76
2021/12/03 08:14:27;;;;;;;15.65;4.95;;;3.80;99.90;;;;;;5015261;28;20128;-78
2021/12/03 08:16:53;;;;;;;15.67;5.23;;;3.70;99.90;;;;;;4981403;28;20593;-78
2021/12/03 08:19:18;;;;;;;10.50;5.00;;;3.90;99.90;;;;;;5014478;28;20049;-77
2021/12/03 08:21:44;;;;;;;12.70;5.13;;;3.60;99.90;;;;;;5014747;28;20383;-77
2021/12/03 08:24:10;;;;;;;11.00;5.07;;;3.80;99.90;;;;;;5014431;28;20394;-75
2021/12/03 08:26:36;;;;;;;11.60;4.43;;;;;;;;;;5014652;28;20046;-79
2021/12/03 08:29:04;;;;;;;16.33;4.60;;;3.80;99.90;;;;;;5014523;28;20056;-77
2021/12/03 08:31:30;;;;;;;10.23;4.63;;;3.70;99.90;;;;;;5014720;28;20135;-76
2021/12/03 08:33:56;;;;;;;10.65;4.25;;;;;;;;;;5013695;28;20437;-79
2021/12/03 08:36:22;;;;;;;12.73;4.25;;;;;;;;;;5014210;28;20049;-80
2021/12/03 08:38:48;;;;;;;13.52;4.13;;;;;;;;;;5014484;28;20111;-80
2021/12/03 08:41:18;;;;;;;12.52;4.35;;;;;;;;;;5013953;28;20494;-80
2021/12/03 08:43:46;;;;;;;12.48;4.20;;;;;;;;;;5014308;28;20049;-79
2021/12/03 08:46:21;;;;;;;16.88;4.22;;;;;;;;;;5014011;28;20092;-78
2021/12/03 08:48:48;;;;;;;13.25;4.18;;;4.00;99.90;;;;;;5014464;28;20046;-77
2021/12/03 08:56:28;;;;;;;15.23;5.45;;;4.10;99.90;;;;;;5013828;28;20141;-76
2021/12/03 08:58:54;;;;;;;14.20;5.07;;;4.10;99.90;;;;;;5014254;28;20128;-75
2021/12/03 09:01:20;;;;;;;14.33;6.17;;;4.00;99.90;;;;;;5013503;28;20301;-76
2021/12/03 09:03:45;;;;;;;13.33;5.77;;;4.10;99.90;;;;;;5014194;28;20048;-77
2021/12/03 09:06:11;;;;;;;19.10;6.27;;;4.30;99.90;;;;;;4996037;28;20081;-77
2021/12/03 09:08:37;;;;;;;25.13;7.33;;;4.20;99.90;;;;;;4996512;28;20124;-79
2021/12/03 09:11:04;;;;;;;19.90;6.30;;;4.20;99.90;;;;;;4996473;28;20092;-78
2021/12/03 09:13:29;;;;;;;13.73;6.40;;;4.20;99.90;;;;;;4996141;28;20529;-78
2021/12/03 09:16:08;;;;;;;13.23;5.63;;;4.20;99.90;;;;;;5013752;28;20077;-77
2021/12/03 09:18:39;;;;;;;14.15;6.25;;;4.20;99.90;;;;;;5013948;28;20054;-78
2021/12/03 09:21:08;;;;;;;19.10;6.55;;;4.20;99.90;;;;;;5013716;28;20100;-77
2021/12/03 09:26:12;;;;;;;22.38;7.70;;;4.30;99.90;;;;;;5013752;28;20124;-78
2021/12/03 09:28:42;;;;;;;14.43;6.60;;;4.30;99.90;;;;;;4996291;28;20061;-76
2021/12/03 09:31:10;;;;;;;19.30;7.97;;;4.30;99.90;;;;;;5013535;28;20056;-77
2021/12/03 09:33:37;;;;;;;15.55;7.13;;;4.30;99.90;;;;;;5013706;28;20092;-78
2021/12/03 09:36:04;;;;;;;17.40;6.95;;;4.30;99.90;;;;;;5013597;28;20108;-79
2021/12/03 09:38:34;;;;;;;19.02;8.25;;;4.30;99.90;;;;;;5013115;28;20081;-78
2021/12/03 09:41:16;;;;;;;18.42;7.32;;;4.30;99.90;;;;;;5013439;28;20100;-75
2021/12/03 09:43:45;;;;;;;18.52;7.63;;;4.40;99.90;;;;;;5013624;28;20057;-77
2021/12/03 09:51:27;;;;;;;18.67;6.80;;;4.40;99.90;;;;;;5013064;28;20498;-78
2021/12/03 09:56:38;;;;;;;18.52;6.57;;;4.50;99.90;;;;;;5013215;28;20053;-77
2021/12/03 10:01:46;;;;;;;17.23;6.60;;;4.50;99.90;;;;;;5012469;28;20058;-76
2021/12/03 10:15:20;;;;;;;21.75;6.10;;;4.60;99.90;;;;;;4979478;28;20133;-76
2021/12/03 10:18:03;;;;;;;18.70;5.85;;;4.60;99.90;;;;;;5013194;28;20045;-79
2021/12/03 10:20:34;;;;;;;27.85;6.50;;;4.70;99.90;;;;;;5012611;28;20037;-78
2021/12/03 10:36:43;;;;;;;17.58;5.45;;;4.70;99.90;;;;;;5012508;28;20104;-81
2021/12/03 10:44:42;;;;;;;20.92;5.43;;;4.70;99.90;;;;;;5012211;28;20510;-83
2021/12/03 10:47:57;;;;;;;16.40;5.50;;;4.70;99.90;;;;;;5012840;28;20057;-81
2021/12/03 11:01:51;;;;;;;13.88;4.43;;;4.80;99.90;;;;;;4985350;28;20046;-80
2021/12/03 11:12:46;;;;;;;17.58;3.72;;;4.70;99.90;;;;;;4962622;28;20055;-80
2021/12/03 11:31:51;;;;;;;11.13;3.50;;;4.60;99.90;;;;;;5015937;28;20437;-80
2021/12/03 11:49:01;;;;;;;;;;;4.70;99.90;;;;;;5015651;28;20121;-81
2021/12/03 12:08:27;;;;;;;15.00;4.07;;;4.70;99.90;;;;;;5015104;28;20057;-79
2021/12/03 13:58:32;;;;;;;13.15;5.07;;;5.00;99.90;;;;;;5013294;28;20092;-82
2021/12/03 14:49:09;;;;;;;8.05;4.22;;;5.20;99.90;;;;;;5035335;28;20057;-83
2021/12/03 14:51:49;;;;;;;10.05;5.40;;;5.20;99.90;;;;;;5032474;28;20045;-81
2021/12/03 14:57:09;;;;;;;9.90;4.72;;;5.20;99.90;;;;;;5030448;28;20057;-80
2021/12/03 14:59:37;;;;;;;14.43;5.00;;;5.30;99.90;;;;;;5028630;28;20588;-80
2021/12/03 15:05:34;;;;;;;10.15;4.70;;;5.20;99.90;;;;;;5008561;28;20086;-84
2021/12/03 15:07:50;;;;;;;19.30;9.20;;;5.20;99.90;;;;;;5002457;28;20097;-84
2021/12/03 15:24:40;;;;;;;18.98;12.35;;;5.10;99.90;;;;;;5010134;28;20061;-83
2021/12/03 15:32:14;;;;;;;12.23;8.10;;;5.10;99.90;;;;;;5005752;28;20572;-77
2021/12/03 15:54:16;;;;;;;14.90;9.77;;;5.10;99.90;;;;;;4995169;28;20089;-79
2021/12/03 15:56:37;;;;;;;17.98;12.43;;;5.10;99.90;;;;;;4988422;28;20125;-79
2021/12/03 16:04:26;;;;;;;13.15;10.65;;;5.10;99.90;;;;;;5008876;28;20528;-74
2021/12/03 16:12:11;;;;;;;17.27;11.60;;;5.10;99.90;;;;;;5007730;28;20045;-75
2021/12/03 16:14:51;;;;;;;15.32;11.13;;;5.10;99.90;;;;;;4991784;28;20046;-73
2021/12/03 16:17:43;;;;;;;16.88;13.35;;;5.10;99.90;;;;;;5010296;28;20061;-81
2021/12/03 16:52:33;;;;;;;14.13;11.65;;;5.10;99.90;;;;;;5014425;28;20053;-74
2021/12/03 16:55:00;;;;;;;14.00;11.85;;;5.00;99.90;;;;;;5007202;28;20081;-74
2021/12/03 16:57:32;;;;;;;14.77;12.32;;;5.10;99.90;;;;;;5008856;28;20124;-74
2021/12/03 17:00:02;;;;;;;12.40;11.10;;;5.10;99.90;;;;;;5008764;28;20041;-74
2021/12/03 17:02:41;;;;;;;13.85;11.82;;;5.10;99.90;;;;;;5014832;28;20049;-74
2021/12/03 17:24:45;;;;;;;15.77;13.07;;;5.20;99.90;;;;;;4946942;28;20092;-74
2021/12/03 17:44:34;;;;;;;16.17;13.98;;;5.20;99.90;;;;;;5013617;28;20136;-73
2021/12/03 17:56:23;;;;;;;16.75;14.70;;;5.20;99.90;;;;;;4932983;29;20111;-73
2021/12/03 17:58:53;;;;;;;18.92;16.63;;;5.20;99.90;;;;;;4999296;28;20058;-72
2021/12/03 18:01:37;;;;;;;18.80;16.27;;;5.20;99.90;;;;;;5012482;28;20062;-73
2021/12/03 18:04:10;;;;;;;21.00;17.80;;;5.20;99.90;;;;;;5013004;28;20065;-74
2021/12/03 18:07:27;;;;;;;27.98;23.42;;;5.20;99.90;;;;;;5013308;28;20089;-73
2021/12/03 18:15:31;;;;;;;20.48;17.92;;;5.30;99.90;;;;;;5013179;28;20057;-76
2021/12/03 18:53:10;;;;;;;25.95;21.90;;;5.30;99.90;;;;;;5013958;28;20115;-79
2021/12/03 18:55:38;;;;;;;25.35;22.17;;;5.40;99.90;;;;;;5032553;28;20049;-79
2021/12/03 18:58:05;;;;;;;27.98;22.50;;;5.30;99.90;;;;;;5014311;28;20056;-80
2021/12/03 19:00:35;;;;;;;25.92;22.23;;;5.40;99.90;;;;;;5014815;28;20448;-81
2021/12/03 19:03:08;;;;;;;27.55;23.55;;;5.30;99.90;;;;;;5032234;28;20538;-80
2021/12/03 19:08:30;;;;;;;30.77;24.65;;;5.40;99.90;;;;;;5014329;28;20115;-81
2021/12/03 19:11:03;;;;;;;29.13;24.35;;;5.40;99.90;;;;;;5032353;28;20096;-79
2021/12/03 19:13:35;;;;;;;32.20;25.70;;;5.40;99.90;;;;;;5032400;28;20393;-77
2021/12/03 19:16:03;;;;;;;32.90;25.65;;;5.40;99.90;;;;;;5031957;28;20088;-77
2021/12/03 19:18:29;;;;;;;32.53;27.13;;;5.40;99.90;;;;;;5033482;28;20053;-77
2021/12/03 19:20:55;;;;;;;38.40;27.80;;;5.40;99.90;;;;;;5035675;28;20097;-80
2021/12/03 19:23:21;;;;;;;32.40;26.17;;;5.40;99.90;;;;;;5017875;28;20168;-80
2021/12/03 19:25:48;;;;;;;34.97;28.23;;;5.40;99.90;;;;;;5035483;28;20482;-80
2021/12/03 19:28:14;;;;;;;36.10;28.13;;;5.40;99.90;;;;;;5035030;28;20045;-79
2021/12/03 19:30:40;;;;;;;36.57;29.03;;;5.40;99.90;;;;;;5018145;28;20091;-83
2021/12/03 19:33:06;;;;;;;37.13;28.93;;;5.40;99.90;;;;;;5035333;28;20041;-80
2021/12/03 19:35:33;;;;;;;31.55;27.23;;;5.40;99.90;;;;;;5035187;28;20135;-82
2021/12/03 19:38:01;;;;;;;34.05;28.67;;;5.40;99.90;;;;;;5035298;28;20102;-79
2021/12/03 19:40:32;;;;;;;36.05;28.42;;;5.50;99.90;;;;;;5034827;28;20076;-75
2021/12/03 19:43:05;;;;;;;38.47;29.70;;;5.40;99.90;;;;;;5017725;28;20052;-80
2021/12/03 19:45:35;;;;;;;35.95;29.30;;;5.50;99.90;;;;;;5034794;28;20397;-79
2021/12/03 19:48:09;;;;;;;38.40;30.38;;;5.50;99.90;;;;;;5034928;28;20409;-80
2021/12/03 19:50:43;;;;;;;34.72;27.75;;;5.40;99.90;;;;;;5034888;28;20053;-81
2021/12/03 19:53:26;;;;;;;38.05;30.05;;;5.40;99.90;;;;;;5017271;28;20049;-80
2021/12/03 19:55:52;;;;;;;39.78;30.52;;;5.40;99.90;;;;;;5035175;28;20437;-81
2021/12/03 19:58:20;;;;;;;44.23;32.83;;;5.50;99.90;;;;;;5016740;28;20069;-82
2021/12/03 20:00:49;;;;;;;45.50;35.15;;;5.50;99.90;;;;;;5034465;28;20485;-81
2021/12/03 20:03:14;;;;;;;35.25;28.83;;;5.50;99.90;;;;;;5034485;28;20063;-80
2021/12/03 20:05:40;;;;;;;36.63;30.23;;;5.50;99.90;;;;;;5034790;28;20049;-79
2021/12/03 20:08:08;;;;;;;40.20;29.85;;;5.50;99.90;;;;;;5034649;28;20053;-80
2021/12/03 20:10:40;;;;;;;36.97;30.20;;;5.50;99.90;;;;;;5034224;28;20049;-80
2021/12/03 20:13:08;;;;;;;37.67;29.33;;;5.50;99.90;;;;;;5034782;28;20497;-81
2021/12/03 20:15:46;;;;;;;40.25;32.08;;;5.50;99.90;;;;;;5034307;28;20083;-81
2021/12/03 20:18:24;;;;;;;52.75;36.63;;;5.50;99.90;;;;;;5034143;28;20198;-80
2021/12/03 20:20:50;;;;;;;41.97;32.40;;;5.50;99.90;;;;;;5034212;28;20046;-81